createdAt,value
2022-08-08T00:04:32.373Z,52.04
2022-08-08T00:15:10.553Z,52.47
2022-08-08T00:25:50.884Z,52.85
2022-08-08T00:36:35.252Z,52.15
2022-08-08T00:48:04.989Z,52.48
2022-08-08T00:59:05.224Z,52.66
2022-08-08T01:10:06.337Z,52.73
2022-08-08T01:21:07.867Z,52.85
2022-08-08T01:32:16.046Z,53.26
2022-08-08T01:42:55.378Z,53.15
2022-08-08T01:55:45.099Z,53.25
2022-08-08T02:04:39.612Z,53.14
2022-08-08T02:15:19.052Z,52.86
2022-08-08T02:25:58.935Z,53.29
2022-08-08T02:36:48.015Z,53.49
2022-08-08T02:47:54.948Z,53.71
2022-08-08T02:59:25.967Z,53.78
2022-08-08T03:10:33.048Z,53.88
2022-08-08T03:21:10.083Z,54.04
2022-08-08T03:32:05.762Z,54.19
2022-08-08T03:42:38.800Z,54.00
2022-08-08T03:53:11.935Z,53.46
2022-08-08T04:03:59.210Z,53.48
2022-08-08T04:14:33.359Z,53.54
2022-08-08T04:25:04.238Z,53.68
2022-08-08T04:35:39.442Z,53.99
2022-08-08T04:46:09.410Z,54.51
2022-08-08T04:56:38.732Z,54.86
2022-08-08T05:07:09.677Z,54.94
2022-08-08T05:17:53.845Z,55.40
2022-08-08T05:28:41.471Z,55.47
2022-08-08T05:39:14.095Z,54.16
2022-08-08T05:49:54.328Z,53.70
2022-08-08T06:00:26.481Z,53.86
2022-08-08T06:10:57.464Z,52.64
2022-08-08T06:21:32.551Z,50.90
2022-08-08T06:32:19.161Z,49.16
2022-08-08T06:42:58.377Z,47.79
2022-08-08T06:53:38.854Z,47.25
2022-08-08T07:04:37.033Z,46.30
2022-08-08T07:15:23.108Z,45.70
2022-08-08T07:26:01.973Z,44.96
2022-08-08T07:36:33.480Z,44.46
2022-08-08T07:47:03.397Z,43.16
2022-08-08T07:57:45.012Z,43.12
2022-08-08T08:08:20.842Z,43.28
2022-08-08T08:18:55.989Z,44.15
2022-08-08T08:29:27.691Z,43.38
2022-08-08T08:40:02.984Z,43.03
2022-08-08T08:50:35.052Z,42.14
2022-08-08T09:01:09.622Z,42.42
2022-08-08T09:11:47.567Z,42.94
2022-08-08T09:22:30.110Z,43.25
2022-08-08T09:33:12.234Z,42.86
2022-08-08T09:44:05.184Z,43.01
2022-08-08T09:54:46.707Z,42.91
2022-08-08T10:05:23.117Z,42.46
2022-08-08T10:16:00.884Z,42.70
2022-08-08T10:26:57.565Z,42.64
2022-08-08T10:37:30.215Z,42.58
2022-08-08T10:48:01.596Z,42.47
2022-08-08T10:58:33.149Z,42.21
2022-08-08T11:09:09.515Z,41.77
2022-08-08T11:19:39.990Z,41.90
2022-08-08T11:30:19.875Z,42.70
2022-08-08T11:40:57.365Z,42.21
2022-08-08T11:51:30.778Z,41.86
2022-08-08T12:02:41.506Z,41.35
2022-08-08T12:13:06.756Z,40.77
2022-08-08T12:23:42.634Z,40.44
2022-08-08T12:34:16.313Z,40.45
2022-08-08T12:44:50.415Z,40.51
2022-08-08T12:55:31.931Z,41.16
2022-08-08T13:06:13.973Z,41.09
2022-08-08T13:16:49.311Z,41.17
2022-08-08T13:27:19.944Z,40.93
2022-08-08T13:38:05.083Z,40.61
2022-08-08T13:48:46.788Z,41.18
2022-08-08T13:59:39.243Z,40.47
2022-08-08T14:10:12.285Z,40.62
2022-08-08T14:20:57.612Z,40.63
2022-08-08T14:32:06.145Z,40.28
2022-08-08T14:42:18.467Z,40.41
2022-08-08T14:53:00.134Z,40.15
2022-08-08T15:03:35.246Z,39.15
2022-08-08T15:14:13.531Z,39.45
2022-08-08T15:24:43.182Z,39.96
2022-08-08T15:35:22.552Z,40.14
2022-08-08T15:45:51.814Z,40.09
2022-08-08T15:56:23.276Z,39.88
2022-08-08T16:06:54.181Z,39.78
2022-08-08T16:17:58.086Z,39.60
2022-08-08T16:28:23.108Z,39.39
2022-08-08T16:39:09.939Z,39.21
2022-08-08T16:49:52.416Z,39.40
2022-08-08T17:00:26.796Z,39.46
2022-08-08T17:10:58.848Z,39.89
2022-08-08T17:21:44.534Z,40.25
2022-08-08T17:32:17.774Z,40.39
2022-08-08T17:42:58.259Z,41.00
2022-08-08T17:53:42.613Z,41.20
2022-08-08T18:04:19.960Z,41.97
2022-08-08T18:14:58.027Z,42.02
2022-08-08T18:25:28.563Z,41.94
2022-08-08T18:36:18.660Z,42.10
2022-08-08T18:46:57.229Z,42.34
2022-08-08T18:57:27.646Z,42.92
2022-08-08T19:08:01.148Z,43.86
2022-08-08T19:18:51.469Z,43.87
2022-08-08T19:29:22.266Z,44.49
2022-08-08T19:39:51.661Z,45.59
2022-08-08T19:50:21.016Z,46.15
2022-08-08T20:00:55.978Z,47.03
2022-08-08T20:11:25.497Z,47.67
2022-08-08T20:21:54.796Z,48.05
2022-08-08T20:32:28.141Z,48.72
2022-08-08T20:42:58.525Z,49.53
2022-08-08T20:53:58.118Z,50.00
2022-08-08T21:04:17.316Z,50.20
2022-08-08T21:14:48.986Z,50.84
2022-08-08T21:25:18.588Z,51.43
2022-08-08T21:36:19.288Z,51.85
2022-08-08T21:48:06.449Z,52.14
2022-08-08T21:57:41.977Z,52.28
2022-08-08T22:08:12.566Z,52.81
2022-08-08T22:18:44.095Z,52.90
2022-08-08T22:29:59.429Z,53.13
2022-08-08T22:40:03.091Z,53.15
2022-08-08T22:50:34.006Z,52.94
2022-08-08T23:01:33.716Z,52.80
2022-08-08T23:12:28.619Z,52.86
2022-08-08T23:22:42.429Z,52.96
2022-08-08T23:33:13.621Z,53.61
2022-08-08T23:43:48.814Z,54.15
2022-08-08T23:54:42.707Z,54.50
